Time;durP1;ratioP1;P1;durP2;ratioP2;P2;SDS_P1;SDS_P2;PMS_P1;PMS_P2;Temp;Humidity;BMP_temperature;BMP_pressure;BME280_temperature;BME280_humidity;BME280_pressure;Samples;Min_cycle;Max_cycle;Signal;HPM_P1;HPM_P2
2023/01/12 00:02:06;;;;;;;31.00;12.63;;;;;;;;;;6151737;23;20176;-87
2023/01/12 00:05:14;;;;;;;20.37;10.63;;;;;;;;;;6152656;23;20148;-86
2023/01/12 00:08:19;;;;;;;23.77;10.13;;;;;;;;;;6152916;23;20292;-89
2023/01/12 00:11:24;;;;;;;29.88;11.32;;;;;;;;;;6153039;23;20172;-88
2023/01/12 00:14:29;;;;;;;21.30;11.17;;;;;;;;;;6151398;23;20153;-87
2023/01/12 00:17:34;;;;;;;18.42;10.18;;;;;;;;;;6150465;23;20169;-88
2023/01/12 00:20:40;;;;;;;19.98;10.65;;;;;;;;;;6150030;23;20168;-89
2023/01/12 00:23:45;;;;;;;20.90;8.85;;;;;;;;;;6152045;23;20237;-89
2023/01/12 00:26:51;;;;;;;16.35;8.20;;;;;;;;;;6152897;23;20208;-90
2023/01/12 00:29:56;;;;;;;15.60;8.30;;;;;;;;;;6153262;23;20224;-88
2023/01/12 00:33:01;;;;;;;22.92;9.43;;;;;;;;;;6151149;23;20164;-88
2023/01/12 00:36:09;;;;;;;15.50;8.73;;;;;;;;;;6149256;23;20168;-90
2023/01/12 00:39:14;;;;;;;17.37;8.80;;;;;;;;;;6151063;23;20156;-88
2023/01/12 00:45:42;;;;;;;19.33;8.70;;;;;;;;;;6150774;23;20637;-89
2023/01/12 00:48:47;;;;;;;26.37;8.63;;;;;;;;;;6150218;23;20171;-90
2023/01/12 00:51:54;;;;;;;14.83;7.30;;;;;;;;;;6151788;23;20172;-87
2023/01/12 00:55:00;;;;;;;15.90;7.83;;;;;;;;;;6152085;23;20164;-90
2023/01/12 00:58:06;;;;;;;16.60;7.20;;;;;;;;;;6151394;23;20284;-87
2023/01/12 01:01:11;;;;;;;18.47;8.00;;;;;;;;;;6151188;23;20243;-88
2023/01/12 01:04:16;;;;;;;16.47;8.23;;;;;;;;;;6151414;23;20185;-90
2023/01/12 01:07:23;;;;;;;22.10;9.77;;;;;;;;;;6149842;23;20192;-89
2023/01/12 01:10:28;;;;;;;22.87;10.23;;;;;;;;;;6168326;23;20164;-89
2023/01/12 01:13:35;;;;;;;21.07;10.03;;;;;;;;;;6151357;23;20164;-88
2023/01/12 01:16:40;;;;;;;22.80;8.20;;;;;;;;;;6151030;23;20175;-89
2023/01/12 01:19:45;;;;;;;21.43;8.10;;;;;;;;;;6151389;23;20541;-87
2023/01/12 01:22:51;;;;;;;17.40;6.80;;;;;;;;;;6148019;23;20164;-87
2023/01/12 01:26:02;;;;;;;19.03;5.20;;;;;;;;;;6150097;23;20164;-88
2023/01/12 01:29:07;;;;;;;15.10;5.20;;;;;;;;;;6168537;23;20177;-87
2023/01/12 01:32:13;;;;;;;27.90;7.97;;;;;;;;;;6150186;23;20619;-86
2023/01/12 01:35:18;;;;;;;20.60;5.33;;;;;;;;;;6149331;23;20239;-89
2023/01/12 01:38:25;;;;;;;15.93;5.23;;;;;;;;;;6147854;23;20212;-88
2023/01/12 01:41:31;;;;;;;11.33;4.77;;;;;;;;;;6150590;23;20190;-88
2023/01/12 01:44:53;;;;;;;11.07;3.70;;;;;;;;;;6150410;23;20168;-88
2023/01/12 01:47:59;;;;;;;13.10;4.40;;;;;;;;;;6149728;23;20196;-87
2023/01/12 01:51:06;;;;;;;10.07;3.63;;;;;;;;;;6150659;23;20594;-88
2023/01/12 01:54:13;;;;;;;9.27;4.07;;;;;;;;;;6150593;23;20172;-87
2023/01/12 01:57:18;;;;;;;9.87;4.00;;;;;;;;;;6151955;23;20505;-87
2023/01/12 02:00:24;;;;;;;11.23;3.83;;;;;;;;;;6151054;23;20168;-87
2023/01/12 02:03:31;;;;;;;15.93;4.70;;;;;;;;;;6150376;23;20168;-89
2023/01/12 02:06:39;;;;;;;8.50;3.73;;;;;;;;;;6150087;23;20196;-87
2023/01/12 02:09:46;;;;;;;8.83;3.37;;;;;;;;;;6148802;23;20219;-88
2023/01/12 02:16:24;;;;;;;7.63;3.93;;;;;;;;;;6152473;23;20189;-89
2023/01/12 02:19:39;;;;;;;12.40;4.00;;;;;;;;;;6153107;23;20169;-88
2023/01/12 02:22:54;;;;;;;9.40;3.77;;;;;;;;;;6151917;23;20281;-87
2023/01/12 02:26:15;;;;;;;12.03;4.60;;;;;;;;;;6153103;23;20212;-87
2023/01/12 02:29:36;;;;;;;10.57;4.77;;;;;;;;;;6152488;23;20168;-87
2023/01/12 02:32:45;;;;;;;21.97;6.20;;;;;;;;;;6152083;23;20168;-91
2023/01/12 02:35:54;;;;;;;21.00;6.43;;;;;;;;;;6150604;23;20229;-87
2023/01/12 02:39:03;;;;;;;14.30;5.53;;;;;;;;;;6150023;23;20255;-87
2023/01/12 02:45:38;;;;;;;12.40;5.10;;;;;;;;;;6170423;23;20616;-89
2023/01/12 02:48:47;;;;;;;12.77;3.83;;;;;;;;;;6149780;23;20196;-86
2023/01/12 02:51:54;;;;;;;10.33;4.90;;;;;;;;;;6150958;23;20172;-87
2023/01/12 02:55:00;;;;;;;7.97;3.53;;;;;;;;;;6150186;23;20185;-90
2023/01/12 02:58:05;;;;;;;14.63;4.10;;;;;;;;;;6151190;23;20161;-88
2023/01/12 03:01:11;;;;;;;14.23;4.17;;;;;;;;;;6151419;23;20172;-88
2023/01/12 03:04:21;;;;;;;11.20;4.17;;;;;;;;;;6149148;23;20725;-87
2023/01/12 03:07:32;;;;;;;10.70;4.20;;;;;;;;;;6150840;23;20197;-89
2023/01/12 03:10:42;;;;;;;17.47;3.97;;;;;;;;;;6150558;23;20195;-90
2023/01/12 03:13:49;;;;;;;12.43;3.80;;;;;;;;;;6152076;23;20528;-87
2023/01/12 03:16:55;;;;;;;10.20;3.93;;;;;;;;;;6151889;23;20267;-87
2023/01/12 03:20:04;;;;;;;10.00;3.77;;;;;;;;;;6150270;23;20172;-85
2023/01/12 03:23:12;;;;;;;9.63;3.43;;;;;;;;;;6151848;23;20176;-88
2023/01/12 03:26:22;;;;;;;6.87;3.10;;;;;;;;;;6150288;23;20665;-87
2023/01/12 03:29:30;;;;;;;8.57;3.10;;;;;;;;;;6149831;23;20168;-87
2023/01/12 03:32:35;;;;;;;9.97;2.80;;;;;;;;;;6149351;23;20169;-89
2023/01/12 03:35:46;;;;;;;11.27;3.47;;;;;;;;;;6148933;23;20156;-88
2023/01/12 03:39:00;;;;;;;9.20;3.23;;;;;;;;;;6148017;23;20208;-87
2023/01/12 03:42:07;;;;;;;14.00;3.50;;;;;;;;;;6148775;23;20540;-88
2023/01/12 03:45:14;;;;;;;9.77;3.17;;;;;;;;;;6149966;23;20164;-89
2023/01/12 03:48:22;;;;;;;8.77;3.20;;;;;;;;;;6147911;23;20192;-87
2023/01/12 03:51:31;;;;;;;7.73;2.93;;;;;;;;;;6148841;23;20160;-89
2023/01/12 03:54:37;;;;;;;6.37;2.60;;;;;;;;;;6150795;23;20667;-86
2023/01/12 03:57:42;;;;;;;8.60;2.70;;;;;;;;;;6149386;23;20172;-89
2023/01/12 04:00:47;;;;;;;9.80;2.93;;;;;;;;;;6150635;23;20177;-89
2023/01/12 04:03:52;;;;;;;13.67;3.17;;;;;;;;;;6149427;23;20172;-89
2023/01/12 04:06:59;;;;;;;12.73;3.07;;;;;;;;;;6148994;23;20152;-89
2023/01/12 04:10:05;;;;;;;6.87;2.77;;;;;;;;;;6149312;23;20216;-86
2023/01/12 04:13:10;;;;;;;15.67;4.17;;;;;;;;;;6149609;23;20181;-87
2023/01/12 04:16:15;;;;;;;11.57;3.87;;;;;;;;;;6150929;23;20173;-87
2023/01/12 04:19:20;;;;;;;7.10;2.70;;;;;;;;;;6150072;23;20297;-88
2023/01/12 04:22:45;;;;;;;7.70;2.53;;;;;;;;;;6147908;23;20177;-84
2023/01/12 04:25:49;;;;;;;9.23;2.67;;;;;;;;;;6149422;23;20165;-87
2023/01/12 04:28:54;;;;;;;10.20;2.50;;;;;;;;;;6148851;23;20564;-88
2023/01/12 04:31:59;;;;;;;6.13;2.43;;;;;;;;;;6150197;23;20168;-88
2023/01/12 04:35:05;;;;;;;8.57;2.50;;;;;;;;;;6149535;23;20176;-88
2023/01/12 04:38:12;;;;;;;8.30;2.60;;;;;;;;;;6150249;23;20173;-86
2023/01/12 04:41:18;;;;;;;17.80;4.20;;;;;;;;;;6148317;23;20192;-86
2023/01/12 04:44:23;;;;;;;10.97;3.50;;;;;;;;;;6150392;23;20165;-90
2023/01/12 04:47:28;;;;;;;8.57;2.73;;;;;;;;;;6148974;23;20197;-87
2023/01/12 04:50:33;;;;;;;5.83;2.57;;;;;;;;;;6149512;23;20293;-88
2023/01/12 04:53:39;;;;;;;7.03;2.60;;;;;;;;;;6150190;23;20297;-85
2023/01/12 04:56:45;;;;;;;9.67;3.00;;;;;;;;;;6149449;23;20626;-89
2023/01/12 04:59:50;;;;;;;9.83;3.20;;;;;;;;;;6148866;23;20180;-89
2023/01/12 05:02:58;;;;;;;5.20;2.57;;;;;;;;;;6149356;23;20176;-87
2023/01/12 05:06:03;;;;;;;5.97;2.50;;;;;;;;;;6149595;23;20177;-89
2023/01/12 05:12:33;;;;;;;8.30;3.10;;;;;;;;;;6149641;23;20168;-89
2023/01/12 05:15:39;;;;;;;11.73;3.30;;;;;;;;;;6149667;23;20177;-88
2023/01/12 05:18:44;;;;;;;8.03;2.47;;;;;;;;;;6150262;23;20217;-88
2023/01/12 05:21:49;;;;;;;8.30;3.00;;;;;;;;;;6150823;23;20177;-89
2023/01/12 05:24:56;;;;;;;7.67;3.30;;;;;;;;;;6150589;23;20221;-87
2023/01/12 05:28:01;;;;;;;8.00;3.63;;;;;;;;;;6150051;23;20219;-89
2023/01/12 05:31:07;;;;;;;8.83;3.33;;;;;;;;;;6149660;23;20208;-88
2023/01/12 05:34:12;;;;;;;14.90;3.60;;;;;;;;;;6149739;23;20172;-88
2023/01/12 05:37:17;;;;;;;7.63;3.40;;;;;;;;;;6149943;23;20168;-89
2023/01/12 05:40:24;;;;;;;8.73;3.73;;;;;;;;;;6148011;23;20243;-86
2023/01/12 05:46:53;;;;;;;11.13;3.23;;;;;;;;;;6149945;23;20192;-87
2023/01/12 05:49:58;;;;;;;11.77;3.40;;;;;;;;;;6151676;23;20644;-89
2023/01/12 05:53:03;;;;;;;6.33;3.10;;;;;;;;;;6151549;23;20173;-90
2023/01/12 05:56:11;;;;;;;11.43;3.27;;;;;;;;;;6151996;23;20264;-88
2023/01/12 05:59:16;;;;;;;9.43;4.00;;;;;;;;;;6153297;23;20539;-88
2023/01/12 06:02:22;;;;;;;7.17;3.33;;;;;;;;;;6152203;23;20280;-88
2023/01/12 06:05:27;;;;;;;8.13;3.40;;;;;;;;;;6155009;23;20608;-88
2023/01/12 06:08:33;;;;;;;11.40;3.57;;;;;;;;;;6150317;23;20192;-87
2023/01/12 06:15:03;;;;;;;6.87;3.57;;;;;;;;;;6169855;23;20169;-89
2023/01/12 06:18:08;;;;;;;12.93;3.73;;;;;;;;;;6150355;23;20172;-88
2023/01/12 06:21:13;;;;;;;6.43;3.23;;;;;;;;;;6153185;23;20168;-89
2023/01/12 06:24:18;;;;;;;12.30;4.03;;;;;;;;;;6150202;23;20290;-87
2023/01/12 06:27:25;;;;;;;11.20;3.23;;;;;;;;;;6151546;23;20157;-87
2023/01/12 06:30:30;;;;;;;9.43;4.33;;;;;;;;;;6152910;23;20248;-91
2023/01/12 06:33:35;;;;;;;8.83;3.77;;;;;;;;;;6153519;23;20224;-90
2023/01/12 06:36:40;;;;;;;10.87;3.90;;;;;;;;;;6154417;23;20216;-87
2023/01/12 06:39:45;;;;;;;11.30;3.77;;;;;;;;;;6153305;23;20180;-90
2023/01/12 06:42:52;;;;;;;9.07;4.43;;;;;;;;;;6151390;23;20183;-87
2023/01/12 06:45:57;;;;;;;8.60;4.33;;;;;;;;;;6153843;23;20268;-89
2023/01/12 06:49:02;;;;;;;12.60;4.30;;;;;;;;;;6152493;23;20205;-90
2023/01/12 06:52:07;;;;;;;12.10;4.33;;;;;;;;;;6153454;23;20169;-90
2023/01/12 06:55:12;;;;;;;12.23;4.17;;;;;;;;;;6153043;23;20212;-90
2023/01/12 06:58:19;;;;;;;7.87;3.60;;;;;;;;;;6151616;23;20168;-85
2023/01/12 07:01:26;;;;;;;17.57;3.80;;;;;;;;;;6151898;23;20152;-88
2023/01/12 07:04:31;;;;;;;13.40;3.93;;;;;;;;;;6153465;23;20184;-88
2023/01/12 07:07:38;;;;;;;9.77;2.97;;;;;;;;;;6152754;23;20213;-89
2023/01/12 07:10:43;;;;;;;11.43;3.20;;;;;;;;;;6151715;23;20168;-88
2023/01/12 07:13:50;;;;;;;7.37;2.90;;;;;;;;;;6149821;23;20231;-86
2023/01/12 07:16:55;;;;;;;6.57;2.50;;;;;;;;;;6152112;23;20152;-90
2023/01/12 07:20:02;;;;;;;10.10;2.70;;;;;;;;;;6150638;23;20171;-87
2023/01/12 07:23:07;;;;;;;5.20;2.10;;;;;;;;;;6151946;23;20168;-89
2023/01/12 07:26:12;;;;;;;10.50;2.87;;;;;;;;;;6150673;23;20196;-88
2023/01/12 07:29:19;;;;;;;8.20;3.17;;;;;;;;;;6152589;23;20212;-86
2023/01/12 07:32:28;;;;;;;7.10;2.73;;;;;;;;;;6170927;23;20180;-90
2023/01/12 07:35:33;;;;;;;15.20;3.97;;;;;;;;;;6151230;23;20172;-90
2023/01/12 07:42:23;;;;;;;9.07;2.20;;;;;;;;;;6168856;23;20188;-90
2023/01/12 07:45:31;;;;;;;9.70;3.70;;;;;;;;;;6152638;23;20153;-89
2023/01/12 07:48:37;;;;;;;10.73;6.20;;;;;;;;;;6152742;23;20243;-89
2023/01/12 07:51:42;;;;;;;14.40;7.77;;;;;;;;;;6151142;23;20168;-88
2023/01/12 07:54:47;;;;;;;12.80;5.93;;;;;;;;;;6152966;23;20177;-89
2023/01/12 07:57:56;;;;;;;11.20;4.60;;;;;;;;;;6152014;23;20269;-87
2023/01/12 08:01:06;;;;;;;13.37;5.00;;;;;;;;;;6152853;23;20172;-87
2023/01/12 08:04:12;;;;;;;10.20;5.40;;;;;;;;;;6153000;23;20172;-91
2023/01/12 08:07:17;;;;;;;11.93;5.00;;;;;;;;;;6150664;23;20173;-87
2023/01/12 08:10:22;;;;;;;24.73;13.10;;;;;;;;;;6152026;23;20292;-86
2023/01/12 08:13:28;;;;;;;14.90;3.80;;;;;;;;;;6149667;23;20168;-87
2023/01/12 08:16:36;;;;;;;7.40;3.63;;;;;;;;;;6151310;23;20193;-88
2023/01/12 08:19:43;;;;;;;8.93;3.37;;;;;;;;;;6151892;23;20208;-89
2023/01/12 08:22:50;;;;;;;9.27;3.93;;;;;;;;;;6152170;23;20238;-88
2023/01/12 08:25:58;;;;;;;11.13;4.67;;;;;;;;;;6151929;23;20168;-88
2023/01/12 08:29:05;;;;;;;8.27;3.43;;;;;;;;;;6151888;23;20267;-89
2023/01/12 08:32:15;;;;;;;11.00;2.93;;;;;;;;;;6150932;23;20168;-90
2023/01/12 08:35:22;;;;;;;7.87;3.60;;;;;;;;;;6152998;23;20173;-89
2023/01/12 08:38:31;;;;;;;13.47;3.63;;;;;;;;;;6152027;23;20169;-88
2023/01/12 08:41:36;;;;;;;11.03;3.20;;;;;;;;;;6151276;23;20647;-90
2023/01/12 08:44:41;;;;;;;11.00;3.70;;;;;;;;;;6149132;23;20196;-88
2023/01/12 08:47:48;;;;;;;43.83;17.43;;;;;;;;;;6149953;23;20172;-88
2023/01/12 08:50:53;;;;;;;18.87;7.30;;;;;;;;;;6150864;23;20168;-91
2023/01/12 08:53:58;;;;;;;14.83;4.63;;;;;;;;;;6151661;23;20171;-89
2023/01/12 08:57:04;;;;;;;11.23;4.27;;;;;;;;;;6152057;23;20620;-88
2023/01/12 09:00:09;;;;;;;7.90;3.00;;;;;;;;;;6150959;23;20252;-89
2023/01/12 09:03:16;;;;;;;7.00;2.88;;;;;;;;;;6150361;23;20168;-88
2023/01/12 09:06:22;;;;;;;9.83;3.00;;;;;;;;;;6150167;23;20624;-88
2023/01/12 09:09:28;;;;;;;10.27;3.13;;;;;;;;;;6150110;23;20204;-89
2023/01/12 09:12:33;;;;;;;11.27;2.92;;;;;;;;;;6150530;23;20177;-86
2023/01/12 09:15:38;;;;;;;8.00;2.33;;;;;;;;;;6150772;23;20561;-89
2023/01/12 09:18:44;;;;;;;11.00;2.30;;;;;;;;;;6147564;23;20173;-88
2023/01/12 09:21:49;;;;;;;8.20;2.55;;;;;;;;;;6149313;23;20151;-87
2023/01/12 09:24:55;;;;;;;5.80;1.90;;;;;;;;;;6151073;23;20168;-88
2023/01/12 09:28:00;;;;;;;5.65;1.95;;;;;;;;;;6151184;23;20185;-86
2023/01/12 09:31:06;;;;;;;6.43;1.73;;;;;;;;;;6152317;23;20160;-89
2023/01/12 09:34:12;;;;;;;5.32;1.55;;;;;;;;;;6152474;23;20177;-91
2023/01/12 09:37:18;;;;;;;8.50;1.95;;;;;;;;;;6149122;23;20164;-89
2023/01/12 09:40:23;;;;;;;5.97;1.95;;;;;;;;;;6152381;23;20189;-89
2023/01/12 09:46:59;;;;;;;10.57;1.60;;;;;;;;;;6150864;23;20193;-89
2023/01/12 09:50:07;;;;;;;5.43;1.40;;;;;;;;;;6167952;23;20199;-86
2023/01/12 09:56:50;;;;;;;9.43;1.77;;;;;;;;;;6151436;23;20225;-87
2023/01/12 09:59:58;;;;;;;5.32;1.60;;;;;;;;;;6152221;23;20201;-89
2023/01/12 10:03:07;;;;;;;5.97;1.45;;;;;;;;;;6152407;23;20185;-90
2023/01/12 10:06:15;;;;;;;4.95;1.48;;;;;;;;;;6151725;23;20308;-89
2023/01/12 10:09:22;;;;;;;7.13;2.00;;;;;;;;;;6150570;23;20200;-87
2023/01/12 10:12:30;;;;;;;6.30;1.83;;;;;;;;;;6151220;23;20217;-86
2023/01/12 10:15:40;;;;;;;8.65;1.73;;;;;;;;;;6151126;23;20169;-90
2023/01/12 10:18:48;;;;;;;9.32;1.67;;;;;;;;;;6149653;23;20169;-87
2023/01/12 10:21:55;;;;;;;9.60;1.70;;;;;;;;;;6151521;23;20188;-89
2023/01/12 10:25:05;;;;;;;6.32;1.40;;;;;;;;;;6149955;23;20217;-88
2023/01/12 10:28:15;;;;;;;5.97;1.75;;;;;;;;;;6149013;23;20225;-90
2023/01/12 10:31:21;;;;;;;8.20;1.50;;;;;;;;;;6149219;23;20172;-91
2023/01/12 10:34:26;;;;;;;8.68;1.65;;;;;;;;;;6151660;23;20177;-89
2023/01/12 10:37:43;;;;;;;8.85;1.73;;;;;;;;;;6149560;23;20172;-90
2023/01/12 10:41:02;;;;;;;21.75;4.65;;;;;;;;;;6150966;23;20676;-86
2023/01/12 10:44:13;;;;;;;18.98;4.45;;;;;;;;;;6151779;23;20207;-88
2023/01/12 10:47:19;;;;;;;25.77;4.53;;;;;;;;;;6151388;23;20173;-88
2023/01/12 10:50:27;;;;;;;16.85;3.83;;;;;;;;;;6151951;23;20196;-88
2023/01/12 10:53:36;;;;;;;11.88;2.83;;;;;;;;;;6153817;23;20169;-87
2023/01/12 10:56:43;;;;;;;7.93;2.65;;;;;;;;;;6152660;23;20165;-90
2023/01/12 10:59:51;;;;;;;10.95;2.90;;;;;;;;;;6153172;23;20238;-91
2023/01/12 11:03:00;;;;;;;7.20;2.72;;;;;;;;;;6152741;23;20177;-89
2023/01/12 11:06:15;;;;;;;9.48;2.53;;;;;;;;;;6152498;23;20203;-88
2023/01/12 11:09:25;;;;;;;10.95;2.03;;;;;;;;;;6153547;23;20188;-87
2023/01/12 11:12:32;;;;;;;7.88;2.08;;;;;;;;;;6154117;23;20192;-89
2023/01/12 11:15:39;;;;;;;8.13;2.50;;;;;;;;;;6152154;23;20185;-89
2023/01/12 11:18:47;;;;;;;6.28;1.90;;;;;;;;;;6154195;23;20168;-88
2023/01/12 11:21:54;;;;;;;6.18;1.60;;;;;;;;;;6152317;23;20217;-88
2023/01/12 11:25:02;;;;;;;8.05;1.75;;;;;;;;;;6154669;23;20169;-90
2023/01/12 11:28:08;;;;;;;8.05;2.08;;;;;;;;;;6152527;23;20623;-91
2023/01/12 11:31:15;;;;;;;5.53;1.98;;;;;;;;;;6152531;23;20168;-88
2023/01/12 11:34:23;;;;;;;5.72;1.98;;;;;;;;;;6152545;23;20165;-88
2023/01/12 11:37:32;;;;;;;9.55;1.92;;;;;;;;;;6154224;23;20169;-90
2023/01/12 11:40:40;;;;;;;8.15;2.80;;;;;;;;;;6153830;23;20247;-88
2023/01/12 11:43:50;;;;;;;12.43;2.67;;;;;;;;;;6152225;23;20172;-90
2023/01/12 11:46:58;;;;;;;10.07;3.17;;;;;;;;;;6150074;23;20176;-88
2023/01/12 11:50:06;;;;;;;5.13;1.88;;;;;;;;;;6154925;23;20220;-88
2023/01/12 11:53:15;;;;;;;6.65;1.70;;;;;;;;;;6154629;23;20168;-89
2023/01/12 11:56:29;;;;;;;11.63;3.10;;;;;;;;;;6151273;23;20184;-88
2023/01/12 11:59:40;;;;;;;11.65;4.78;;;;;;;;;;6151633;23;20588;-88
2023/01/12 12:02:51;;;;;;;9.25;2.30;;;;;;;;;;6151734;23;20709;-88
2023/01/12 12:06:03;;;;;;;6.25;1.70;;;;;;;;;;6153113;23;20185;-91
2023/01/12 12:09:16;;;;;;;5.47;2.30;;;;;;;;;;6150884;23;20192;-89
2023/01/12 12:12:26;;;;;;;7.20;2.35;;;;;;;;;;6152636;23;20168;-89
2023/01/12 12:15:38;;;;;;;5.88;1.58;;;;;;;;;;6151426;23;20169;-91
2023/01/12 12:19:01;;;;;;;11.90;1.98;;;;;;;;;;6151576;23;20252;-87
2023/01/12 12:22:13;;;;;;;4.22;1.90;;;;;;;;;;6155600;23;20156;-90
2023/01/12 12:25:23;;;;;;;5.32;1.88;;;;;;;;;;6155243;23;20172;-89
2023/01/12 12:28:43;;;;;;;10.43;2.25;;;;;;;;;;6152900;23;20243;-89
2023/01/12 12:31:55;;;;;;;8.63;2.08;;;;;;;;;;6156297;23;20184;-89
2023/01/12 12:35:19;;;;;;;9.05;2.40;;;;;;;;;;6153578;23;20224;-88
2023/01/12 12:38:28;;;;;;;4.85;1.65;;;;;;;;;;6152771;23;20165;-89
2023/01/12 12:45:16;;;;;;;9.02;3.22;;;;;;;;;;6151932;23;20168;-88
2023/01/12 12:48:27;;;;;;;6.88;2.55;;;;;;;;;;6151018;23;20172;-90
2023/01/12 12:51:34;;;;;;;6.22;1.63;;;;;;;;;;6152063;23;20165;-91
2023/01/12 12:54:40;;;;;;;6.25;2.00;;;;;;;;;;6151376;23;20620;-90
2023/01/12 12:58:02;;;;;;;7.88;1.42;;;;;;;;;;6150805;23;20168;-88
2023/01/12 13:01:26;;;;;;;7.75;1.58;;;;;;;;;;6149957;23;20184;-86
2023/01/12 13:04:52;;;;;;;5.78;1.30;;;;;;;;;;6152999;23;20164;-91
2023/01/12 13:08:01;;;;;;;7.50;1.77;;;;;;;;;;6173228;23;20161;-88
2023/01/12 13:11:08;;;;;;;5.90;1.70;;;;;;;;;;6153084;23;20199;-90
2023/01/12 13:14:19;;;;;;;4.68;1.70;;;;;;;;;;6152542;23;20164;-89
2023/01/12 13:17:44;;;;;;;14.02;1.92;;;;;;;;;;6151441;23;20160;-88
2023/01/12 13:20:58;;;;;;;7.55;1.92;;;;;;;;;;6153783;23;20168;-90
2023/01/12 13:24:23;;;;;;;8.50;1.77;;;;;;;;;;6153534;23;20220;-89
2023/01/12 13:27:51;;;;;;;3.35;1.50;;;;;;;;;;6150222;23;20272;-88
2023/01/12 13:30:57;;;;;;;6.72;1.38;;;;;;;;;;6150930;23;20247;-90
2023/01/12 13:34:23;;;;;;;5.13;1.60;;;;;;;;;;6152357;23;20176;-91
2023/01/12 13:41:03;;;;;;;5.97;1.85;;;;;;;;;;6151952;23;20230;-90
2023/01/12 13:44:10;;;;;;;8.68;1.90;;;;;;;;;;6152111;23;20590;-89
2023/01/12 13:47:23;;;;;;;5.72;1.70;;;;;;;;;;6154723;23;20164;-89
2023/01/12 13:50:28;;;;;;;5.00;1.40;;;;;;;;;;6151263;23;20187;-87
2023/01/12 13:53:33;;;;;;;9.32;2.25;;;;;;;;;;6150494;23;20172;-86
2023/01/12 13:56:39;;;;;;;6.78;2.30;;;;;;;;;;6149301;23;20156;-88
2023/01/12 13:59:58;;;;;;;12.00;2.45;;;;;;;;;;6150665;23;20168;-88
2023/01/12 14:03:04;;;;;;;11.48;2.83;;;;;;;;;;6153103;23;20217;-85
2023/01/12 14:06:16;;;;;;;6.50;2.00;;;;;;;;;;6149232;23;20164;-89
2023/01/12 14:09:23;;;;;;;9.05;2.22;;;;;;;;;;6152208;23;20164;-87
2023/01/12 14:12:42;;;;;;;11.07;1.83;;;;;;;;;;6153459;23;20184;-90
2023/01/12 14:19:29;;;;;;;6.60;2.03;;;;;;;;;;6154810;23;20168;-89
2023/01/12 14:22:35;;;;;;;7.55;1.77;;;;;;;;;;6153646;23;20243;-90
2023/01/12 14:25:40;;;;;;;5.95;1.83;;;;;;;;;;6155097;23;20153;-89
2023/01/12 14:28:47;;;;;;;11.75;2.13;;;;;;;;;;6152800;23;20280;-89
2023/01/12 14:31:54;;;;;;;6.60;2.35;;;;;;;;;;6154521;23;20196;-91
2023/01/12 14:35:00;;;;;;;9.07;3.20;;;;;;;;;;6156485;23;20176;-91
2023/01/12 14:38:05;;;;;;;5.32;2.10;;;;;;;;;;6154294;23;20172;-89
2023/01/12 14:46:23;;;;;;;7.05;2.28;;;;;;;;;;6154111;23;20199;-87
2023/01/12 14:48:17;;;;;;;2.83;1.52;;;;;;;;;;6153708;23;20191;-89
2023/01/12 14:51:28;;;;;;;6.85;2.13;;;;;;;;;;6152626;23;20886;-88
2023/01/12 14:54:34;;;;;;;12.77;3.70;;;;;;;;;;6155499;23;20491;-91
2023/01/12 14:57:40;;;;;;;5.72;2.58;;;;;;;;;;6155301;23;20168;-89
2023/01/12 15:00:46;;;;;;;9.50;2.47;;;;;;;;;;6153915;23;20640;-87
2023/01/12 15:03:53;;;;;;;7.05;2.30;;;;;;;;;;6155424;23;20173;-89
2023/01/12 15:07:04;;;;;;;5.78;2.70;;;;;;;;;;6153192;23;20169;-89
2023/01/12 15:10:26;;;;;;;9.43;3.22;;;;;;;;;;6153847;23;20213;-90
2023/01/12 15:13:33;;;;;;;5.90;2.10;;;;;;;;;;6154942;23;20152;-90
2023/01/12 15:26:50;;;;;;;5.25;1.70;;;;;;;;;;6154554;23;20494;-89
2023/01/12 15:29:56;;;;;;;6.95;2.13;;;;;;;;;;6155161;23;20164;-90
2023/01/12 15:33:01;;;;;;;7.35;2.40;;;;;;;;;;6154992;23;20209;-89
2023/01/12 15:36:07;;;;;;;6.55;2.60;;;;;;;;;;6155176;23;20168;-89
2023/01/12 15:39:19;;;;;;;4.68;1.90;;;;;;;;;;6155102;23;20226;-87
2023/01/12 15:42:25;;;;;;;6.63;2.00;;;;;;;;;;6157197;23;20240;-89
2023/01/12 15:45:37;;;;;;;8.48;2.60;;;;;;;;;;6158345;23;20168;-89
2023/01/12 15:48:47;;;;;;;11.57;3.00;;;;;;;;;;6161119;23;20173;-89
2023/01/12 15:51:52;;;;;;;11.23;3.22;;;;;;;;;;6156155;23;20308;-89
2023/01/12 15:54:59;;;;;;;8.55;2.90;;;;;;;;;;6155932;23;20153;-90
2023/01/12 15:58:05;;;;;;;9.40;3.22;;;;;;;;;;6157293;23;20173;-89
2023/01/12 16:01:11;;;;;;;7.35;3.40;;;;;;;;;;6156217;23;20173;-89
2023/01/12 16:04:18;;;;;;;9.40;3.45;;;;;;;;;;6154029;23;20169;-88
2023/01/12 16:07:24;;;;;;;9.20;3.22;;;;;;;;;;6155376;23;20172;-91
2023/01/12 16:10:33;;;;;;;9.32;3.83;;;;;;;;;;6157785;23;20181;-91
2023/01/12 16:13:38;;;;;;;9.95;4.25;;;;;;;;;;6155233;23;20256;-87
2023/01/12 16:16:47;;;;;;;12.20;3.97;;;;;;;;;;6154195;23;20193;-90
2023/01/12 16:20:20;;;;;;;10.63;3.97;;;;;;;;;;6152140;23;20551;-88
2023/01/12 16:23:30;;;;;;;10.20;3.83;;;;;;;;;;6152327;23;20165;-88
2023/01/12 16:26:37;;;;;;;6.72;3.47;;;;;;;;;;6154182;23;20608;-87
2023/01/12 16:29:42;;;;;;;10.88;3.13;;;;;;;;;;6152544;23;20176;-89
2023/01/12 16:32:47;;;;;;;8.05;3.10;;;;;;;;;;6152523;23;20316;-88
2023/01/12 16:36:00;;;;;;;7.18;2.92;;;;;;;;;;6154214;23;20172;-91
2023/01/12 16:39:06;;;;;;;13.55;3.53;;;;;;;;;;6155055;23;20192;-90
2023/01/12 16:42:13;;;;;;;7.30;3.70;;;;;;;;;;6157511;23;20196;-88
2023/01/12 16:45:19;;;;;;;10.55;5.28;;;;;;;;;;6154243;23;20214;-89
2023/01/12 16:48:29;;;;;;;12.27;4.47;;;;;;;;;;6154599;23;20220;-86
2023/01/12 16:51:34;;;;;;;20.45;5.80;;;;;;;;;;6154138;23;20200;-89
2023/01/12 16:54:41;;;;;;;13.02;5.65;;;;;;;;;;6153806;23;20164;-88
2023/01/12 16:57:55;;;;;;;19.27;7.00;;;;;;;;;;6154158;23;20148;-87
2023/01/12 17:01:06;;;;;;;15.65;7.40;;;;;;;;;;6154981;23;20604;-88
2023/01/12 17:04:13;;;;;;;27.98;8.57;;;;;;;;;;6156380;23;20264;-89
2023/01/12 17:07:19;;;;;;;19.85;7.85;;;;;;;;;;6156212;23;20165;-89
2023/01/12 17:10:25;;;;;;;12.77;5.65;;;;;;;;;;6153981;23;20160;-89
2023/01/12 17:13:32;;;;;;;10.07;4.00;;;;;;;;;;6155386;23;20169;-89
2023/01/12 17:16:37;;;;;;;8.50;4.17;;;;;;;;;;6157262;23;20173;-90
2023/01/12 17:19:43;;;;;;;9.82;4.53;;;;;;;;;;6154824;23;20180;-88
2023/01/12 17:22:48;;;;;;;12.07;4.75;;;;;;;;;;6155137;23;20164;-89
2023/01/12 17:25:55;;;;;;;10.65;4.78;;;;;;;;;;6152988;23;20184;-89
2023/01/12 17:29:02;;;;;;;8.80;4.28;;;;;;;;;;6153421;23;20164;-89
2023/01/12 17:32:09;;;;;;;13.90;5.10;;;;;;;;;;6154998;23;20241;-88
2023/01/12 17:35:14;;;;;;;33.45;11.35;;;;;;;;;;6156634;23;20240;-89
2023/01/12 17:38:19;;;;;;;12.93;5.25;;;;;;;;;;6154906;23;20168;-88
2023/01/12 17:44:50;;;;;;;7.43;3.60;;;;;;;;;;6154272;23;20164;-88
2023/01/12 17:47:55;;;;;;;8.30;3.47;;;;;;;;;;6152841;23;20243;-88
2023/01/12 17:51:01;;;;;;;11.63;3.88;;;;;;;;;;6154021;23;20184;-89
2023/01/12 17:54:08;;;;;;;7.20;3.20;;;;;;;;;;6152110;23;20181;-88
2023/01/12 17:57:13;;;;;;;7.75;3.20;;;;;;;;;;6153848;23;20160;-87
2023/01/12 18:00:20;;;;;;;13.40;4.15;;;;;;;;;;6152844;23;20172;-89
2023/01/12 18:03:26;;;;;;;9.48;3.05;;;;;;;;;;6154878;23;20168;-88
2023/01/12 18:06:31;;;;;;;14.00;4.38;;;;;;;;;;6152319;23;20184;-89
2023/01/12 18:09:36;;;;;;;16.63;6.00;;;;;;;;;;6150397;23;20173;-88
2023/01/12 18:12:42;;;;;;;6.22;2.42;;;;;;;;;;6151926;23;20196;-86
2023/01/12 18:15:52;;;;;;;7.72;2.80;;;;;;;;;;6153726;23;20172;-87
2023/01/12 18:18:58;;;;;;;8.98;2.55;;;;;;;;;;6153285;23;20168;-88
2023/01/12 18:22:05;;;;;;;5.45;3.05;;;;;;;;;;6154527;23;20157;-88
2023/01/12 18:25:11;;;;;;;9.55;2.67;;;;;;;;;;6155939;23;20165;-90
2023/01/12 18:28:22;;;;;;;12.07;3.38;;;;;;;;;;6157098;23;20160;-87
2023/01/12 18:31:39;;;;;;;10.65;2.67;;;;;;;;;;6158889;23;20208;-87
2023/01/12 18:34:45;;;;;;;12.75;3.83;;;;;;;;;;6157694;23;20249;-89
2023/01/12 18:37:51;;;;;;;10.55;4.63;;;;;;;;;;6157775;23;20209;-88
2023/01/12 18:44:19;;;;;;;10.45;2.88;;;;;;;;;;6156535;23;20156;-89
2023/01/12 18:59:03;;;;;;;8.73;2.88;;;;;;;;;;6176177;23;20214;-90
2023/01/12 19:02:18;;;;;;;7.82;2.05;;;;;;;;;;6157850;23;20172;-89
2023/01/12 19:05:34;;;;;;;7.20;2.42;;;;;;;;;;6157087;23;20240;-89
2023/01/12 19:11:59;;;;;;;6.32;2.70;;;;;;;;;;6146958;23;20212;-90
2023/01/12 19:18:39;;;;;;;14.90;6.90;;;;;;;;;;6086182;23;20192;-90
2023/01/12 20:24:27;;;;;;;17.23;5.55;;;;;;;;;;6144096;23;20566;-89
2023/01/12 20:27:33;;;;;;;9.90;5.07;;;;;;;;;;6152698;23;20169;-88
2023/01/12 20:30:41;;;;;;;12.18;4.13;;;;;;;;;;6155159;23;20160;-88
2023/01/12 20:33:46;;;;;;;8.13;3.97;;;;;;;;;;6155648;23;20168;-89
2023/01/12 20:36:54;;;;;;;12.57;4.13;;;;;;;;;;6155430;23;20256;-89
2023/01/12 20:40:02;;;;;;;13.93;4.47;;;;;;;;;;6153525;23;20169;-89
2023/01/12 20:43:08;;;;;;;17.55;6.68;;;;;;;;;;6155644;23;20176;-88
2023/01/12 20:46:14;;;;;;;18.17;6.78;;;;;;;;;;6156243;23;20217;-90
2023/01/12 20:49:19;;;;;;;15.88;5.15;;;;;;;;;;6154471;23;20168;-90
2023/01/12 20:52:25;;;;;;;14.82;4.47;;;;;;;;;;6156774;23;20205;-90
2023/01/12 20:55:32;;;;;;;9.63;3.75;;;;;;;;;;6153001;23;20697;-91
2023/01/12 20:58:37;;;;;;;7.82;3.15;;;;;;;;;;6152444;23;20188;-88
2023/01/12 21:01:43;;;;;;;6.00;2.35;;;;;;;;;;6154194;23;20152;-90